createdAt,value
2023-03-17T00:00:54.218Z,5.41
2023-03-17T00:03:29.848Z,5.42
2023-03-17T00:06:02.048Z,5.42
2023-03-17T00:08:36.129Z,5.42
2023-03-17T00:11:15.334Z,5.42
2023-03-17T00:13:46.412Z,5.42
2023-03-17T00:16:22.252Z,5.41
2023-03-17T00:18:54.885Z,5.41
2023-03-17T00:21:35.787Z,5.42
2023-03-17T00:24:06.755Z,5.43
2023-03-17T00:26:36.255Z,5.44
2023-03-17T00:29:06.220Z,5.43
2023-03-17T00:31:36.581Z,5.43
2023-03-17T00:34:08.205Z,5.43
2023-03-17T00:36:37.597Z,5.42
2023-03-17T00:41:43.825Z,5.42
2023-03-17T00:44:14.659Z,5.39
2023-03-17T00:46:44.828Z,5.40
2023-03-17T00:49:22.385Z,5.39
2023-03-17T00:51:54.965Z,5.39
2023-03-17T00:54:24.428Z,5.39
2023-03-17T00:56:53.901Z,5.37
2023-03-17T00:59:38.805Z,5.36
2023-03-17T01:02:13.351Z,5.37
2023-03-17T01:04:50.000Z,5.36
2023-03-17T01:07:22.687Z,5.35
2023-03-17T01:09:53.024Z,5.35
2023-03-17T01:12:22.502Z,5.34
2023-03-17T01:14:52.940Z,5.35
2023-03-17T01:17:23.188Z,5.36
2023-03-17T01:19:52.986Z,5.36
2023-03-17T01:22:22.519Z,5.35
2023-03-17T01:24:51.968Z,5.35
2023-03-17T01:27:22.167Z,5.36
2023-03-17T01:29:55.714Z,5.35
2023-03-17T01:32:25.857Z,5.34
2023-03-17T01:34:55.245Z,5.34
2023-03-17T01:37:24.739Z,5.34
2023-03-17T01:39:54.728Z,5.33
2023-03-17T01:42:24.171Z,5.33
2023-03-17T01:45:01.647Z,5.33
2023-03-17T01:47:32.228Z,5.31
2023-03-17T01:50:09.018Z,5.32
2023-03-17T01:52:40.716Z,5.32
2023-03-17T01:55:14.906Z,5.31
2023-03-17T01:57:53.566Z,5.31
2023-03-17T02:00:25.044Z,5.29
2023-03-17T02:02:57.697Z,5.29
2023-03-17T02:05:31.158Z,5.28
2023-03-17T02:08:00.605Z,5.28
2023-03-17T02:10:32.459Z,5.28
2023-03-17T02:13:05.876Z,5.28
2023-03-17T02:15:46.432Z,5.27
2023-03-17T02:18:18.593Z,5.26
2023-03-17T02:20:48.013Z,5.27
2023-03-17T02:23:23.050Z,5.27
2023-03-17T02:25:54.347Z,5.26
2023-03-17T02:28:30.576Z,5.25
2023-03-17T02:31:00.045Z,5.25
2023-03-17T02:33:30.244Z,5.25
2023-03-17T02:35:59.795Z,5.25
2023-03-17T02:38:29.210Z,5.25
2023-03-17T02:41:02.433Z,5.24
2023-03-17T02:43:31.904Z,5.25
2023-03-17T02:46:02.587Z,5.25
2023-03-17T02:48:34.300Z,5.24
2023-03-17T02:51:04.379Z,5.24
2023-03-17T02:53:33.855Z,5.22
2023-03-17T02:56:04.060Z,5.20
2023-03-17T02:58:33.573Z,5.19
2023-03-17T03:01:03.794Z,5.17
2023-03-17T03:03:33.468Z,5.17
2023-03-17T03:06:03.227Z,5.15
2023-03-17T03:08:32.994Z,5.14
2023-03-17T03:11:03.587Z,5.12
2023-03-17T03:13:33.106Z,5.12
2023-03-17T03:16:02.447Z,5.11
2023-03-17T03:18:33.196Z,5.09
2023-03-17T03:21:05.816Z,5.10
2023-03-17T03:23:36.130Z,5.10
2023-03-17T03:26:05.907Z,5.10
2023-03-17T03:28:35.366Z,5.09
2023-03-17T03:31:05.117Z,5.10
2023-03-17T03:33:35.267Z,5.09
2023-03-17T03:36:04.960Z,5.09
2023-03-17T03:38:34.912Z,5.09
2023-03-17T03:41:05.289Z,5.09
2023-03-17T03:43:36.688Z,5.08
2023-03-17T03:46:07.214Z,5.09
2023-03-17T03:48:37.209Z,5.10
2023-03-17T03:51:07.034Z,5.11
2023-03-17T03:53:37.459Z,5.10
2023-03-17T03:56:07.539Z,5.10
2023-03-17T03:58:37.270Z,5.09
2023-03-17T04:01:08.278Z,5.10
2023-03-17T04:03:39.305Z,5.10
2023-03-17T04:06:09.872Z,5.11
2023-03-17T04:08:39.316Z,5.11
2023-03-17T04:11:08.954Z,5.11
2023-03-17T04:13:38.758Z,5.11
2023-03-17T04:16:08.522Z,5.12
2023-03-17T04:18:37.979Z,5.14
2023-03-17T04:21:08.625Z,5.13
2023-03-17T04:23:38.019Z,5.12
2023-03-17T04:26:07.596Z,5.13
2023-03-17T04:28:36.938Z,5.12
2023-03-17T04:31:08.205Z,5.11
2023-03-17T04:33:38.497Z,5.12
2023-03-17T04:36:09.717Z,5.12
2023-03-17T04:38:39.253Z,5.13
2023-03-17T04:41:11.045Z,5.13
2023-03-17T04:43:41.384Z,5.13
2023-03-17T04:46:11.134Z,5.14
2023-03-17T04:48:41.521Z,5.13
2023-03-17T04:51:11.903Z,5.13
2023-03-17T04:53:41.400Z,5.12
2023-03-17T04:56:12.003Z,5.13
2023-03-17T04:58:41.408Z,5.13
2023-03-17T05:01:11.549Z,5.12
2023-03-17T05:03:41.279Z,5.12
2023-03-17T05:06:11.115Z,5.13
2023-03-17T05:08:40.641Z,5.13
2023-03-17T05:11:09.935Z,5.14
2023-03-17T05:13:43.391Z,5.16
2023-03-17T05:16:13.249Z,5.16
2023-03-17T05:18:43.987Z,5.17
2023-03-17T05:21:13.443Z,5.18
2023-03-17T05:23:43.140Z,5.20
2023-03-17T05:26:13.296Z,5.20
2023-03-17T05:28:43.368Z,5.22
2023-03-17T05:31:12.871Z,5.24
2023-03-17T05:33:42.521Z,5.27
2023-03-17T05:36:12.244Z,5.30
2023-03-17T05:38:42.893Z,5.34
2023-03-17T05:41:12.600Z,5.37
2023-03-17T05:43:44.429Z,5.42
2023-03-17T05:46:14.037Z,5.45
2023-03-17T05:48:43.968Z,5.46
2023-03-17T05:51:13.558Z,5.47
2023-03-17T05:53:43.708Z,5.50
2023-03-17T05:56:13.714Z,5.54
2023-03-17T05:58:43.264Z,5.56
2023-03-17T06:01:12.973Z,5.58
2023-03-17T06:03:44.255Z,5.62
2023-03-17T06:06:14.053Z,5.65
2023-03-17T06:08:44.230Z,5.66
2023-03-17T06:11:13.828Z,5.69
2023-03-17T06:13:43.227Z,5.75
2023-03-17T06:16:13.133Z,5.76
2023-03-17T06:18:43.017Z,5.77
2023-03-17T06:21:14.045Z,5.78
2023-03-17T06:23:43.720Z,5.75
2023-03-17T06:26:13.253Z,5.78
2023-03-17T06:28:42.660Z,5.80
2023-03-17T06:31:12.236Z,5.81
2023-03-17T06:33:41.946Z,5.85
2023-03-17T06:36:13.898Z,5.88
2023-03-17T06:38:46.505Z,5.87
2023-03-17T06:41:16.296Z,5.85
2023-03-17T06:43:45.717Z,5.85
2023-03-17T06:46:15.682Z,5.80
2023-03-17T06:48:45.456Z,5.79
2023-03-17T06:51:14.951Z,5.83
2023-03-17T06:53:44.432Z,6.01
2023-03-17T06:56:27.404Z,6.29
2023-03-17T06:58:59.977Z,6.57
2023-03-17T07:01:29.526Z,6.87
2023-03-17T07:04:00.590Z,7.07
2023-03-17T07:06:31.576Z,7.29
2023-03-17T07:09:02.349Z,7.42
2023-03-17T07:11:32.889Z,7.62
2023-03-17T07:14:05.404Z,7.87
2023-03-17T07:16:35.213Z,8.08
2023-03-17T07:19:05.245Z,8.26
2023-03-17T07:21:34.732Z,8.40
2023-03-17T07:24:05.027Z,8.55
2023-03-17T07:26:34.595Z,8.66
2023-03-17T07:29:06.121Z,8.77
2023-03-17T07:31:38.892Z,8.82
2023-03-17T07:34:08.543Z,8.96
2023-03-17T07:36:39.018Z,9.12
2023-03-17T07:39:12.199Z,9.19
2023-03-17T07:41:42.893Z,9.27
2023-03-17T07:44:13.512Z,9.42
2023-03-17T07:46:43.001Z,9.58
2023-03-17T07:49:15.364Z,9.69
2023-03-17T07:51:55.266Z,9.84
2023-03-17T07:54:27.192Z,9.97
2023-03-17T07:56:57.174Z,10.04
2023-03-17T07:59:28.150Z,10.16
2023-03-17T08:01:59.853Z,10.19
2023-03-17T08:04:29.836Z,10.07
2023-03-17T08:06:59.356Z,10.02
2023-03-17T08:09:28.926Z,10.04
2023-03-17T08:11:58.651Z,10.16
2023-03-17T08:14:28.089Z,10.20
2023-03-17T08:16:58.464Z,10.16
2023-03-17T08:19:29.903Z,10.14
2023-03-17T08:21:59.911Z,10.36
2023-03-17T08:24:29.657Z,10.37
2023-03-17T08:27:00.851Z,10.41
2023-03-17T08:29:35.939Z,10.58
2023-03-17T08:32:06.328Z,10.81
2023-03-17T08:34:36.434Z,11.01
2023-03-17T08:37:10.122Z,11.22
2023-03-17T08:39:41.114Z,11.44
2023-03-17T08:42:11.042Z,11.61
2023-03-17T08:44:43.541Z,11.81
2023-03-17T08:47:24.291Z,12.05
2023-03-17T08:49:56.458Z,12.05
2023-03-17T08:52:26.503Z,11.78
2023-03-17T08:54:59.719Z,11.94
2023-03-17T08:57:45.244Z,12.08
2023-03-17T09:00:20.663Z,12.32
2023-03-17T09:02:56.351Z,12.41
2023-03-17T09:05:30.896Z,12.52
2023-03-17T09:08:01.896Z,12.82
2023-03-17T09:10:31.995Z,12.92
2023-03-17T09:13:04.454Z,13.18
2023-03-17T09:15:37.957Z,13.44
2023-03-17T09:18:09.387Z,13.55
2023-03-17T09:20:39.784Z,13.30
2023-03-17T09:23:10.860Z,13.35
2023-03-17T09:25:42.514Z,13.67
2023-03-17T09:28:13.598Z,14.04
2023-03-17T09:30:43.571Z,14.16
2023-03-17T09:33:17.994Z,14.30
2023-03-17T09:35:48.213Z,14.40
2023-03-17T09:38:17.748Z,14.36
2023-03-17T09:41:06.894Z,14.68
2023-03-17T09:44:08.962Z,15.07
2023-03-17T09:47:09.715Z,15.11
2023-03-17T09:49:49.865Z,15.27
2023-03-17T09:52:34.577Z,15.18
2023-03-17T09:55:08.906Z,15.44
2023-03-17T09:57:44.106Z,15.27
2023-03-17T10:00:18.396Z,15.25
2023-03-17T10:02:48.634Z,15.40
2023-03-17T10:05:35.979Z,15.53
2023-03-17T10:08:30.750Z,15.77
2023-03-17T10:11:29.718Z,15.76
2023-03-17T10:14:41.019Z,15.98
2023-03-17T10:17:27.339Z,15.92
2023-03-17T10:20:09.215Z,15.67
2023-03-17T10:22:59.142Z,15.63
2023-03-17T10:25:34.087Z,15.79
2023-03-17T10:28:33.281Z,16.05
2023-03-17T10:31:33.776Z,16.10
2023-03-17T10:34:26.851Z,16.55
2023-03-17T10:37:12.425Z,16.84
2023-03-17T10:40:05.595Z,16.88
2023-03-17T10:42:50.075Z,17.25
2023-03-17T10:45:33.513Z,17.58
2023-03-17T10:48:07.814Z,17.52
2023-03-17T10:50:41.804Z,17.61
2023-03-17T10:53:44.556Z,17.14
2023-03-17T10:56:30.257Z,16.61
2023-03-17T10:59:39.507Z,16.37
2023-03-17T11:02:36.324Z,16.69
2023-03-17T11:05:27.044Z,17.05
2023-03-17T11:08:15.115Z,16.85
2023-03-17T11:11:08.085Z,16.90
2023-03-17T11:13:37.643Z,16.54
2023-03-17T11:16:24.916Z,16.49
2023-03-17T11:19:00.606Z,16.68
2023-03-17T11:21:47.676Z,16.89
2023-03-17T11:24:59.383Z,16.53
2023-03-17T11:27:36.835Z,16.46
2023-03-17T11:30:44.865Z,16.32
2023-03-17T11:33:51.264Z,16.34
2023-03-17T11:37:00.113Z,16.25
2023-03-17T11:39:49.096Z,16.54
2023-03-17T11:42:37.712Z,16.92
2023-03-17T11:45:29.166Z,17.14
2023-03-17T11:48:27.871Z,16.78
2023-03-17T11:51:16.329Z,16.86
2023-03-17T11:54:29.412Z,17.11
2023-03-17T11:57:09.091Z,17.61
2023-03-17T11:59:52.385Z,17.46
2023-03-17T12:02:31.698Z,16.78
2023-03-17T12:05:25.287Z,16.91
2023-03-17T12:08:37.987Z,17.12
2023-03-17T12:11:13.178Z,17.83
2023-03-17T12:14:15.822Z,18.09
2023-03-17T12:17:05.467Z,17.82
2023-03-17T12:20:22.754Z,18.38
2023-03-17T12:23:11.215Z,18.49
2023-03-17T12:26:14.941Z,19.13
2023-03-17T12:29:03.241Z,19.61
2023-03-17T12:31:57.046Z,19.40
2023-03-17T12:34:59.218Z,19.32
2023-03-17T12:37:30.482Z,19.56
2023-03-17T12:40:15.090Z,19.32
2023-03-17T12:43:08.944Z,19.76
2023-03-17T12:45:46.496Z,20.27
2023-03-17T12:48:55.785Z,20.37
2023-03-17T12:52:05.551Z,20.48
2023-03-17T12:54:39.909Z,19.89
2023-03-17T12:57:22.316Z,19.65
2023-03-17T13:00:17.530Z,20.19
2023-03-17T13:03:13.610Z,20.10
2023-03-17T13:05:51.514Z,20.30
2023-03-17T13:08:34.631Z,20.21
2023-03-17T13:11:45.858Z,19.83
2023-03-17T13:14:46.481Z,20.01
2023-03-17T13:17:19.894Z,20.18
2023-03-17T13:20:08.248Z,20.08
2023-03-17T13:23:12.756Z,20.09
2023-03-17T13:25:43.732Z,19.55
2023-03-17T13:28:13.323Z,19.64
2023-03-17T13:31:16.381Z,20.17
2023-03-17T13:33:57.808Z,20.40
2023-03-17T13:37:28.263Z,20.51
2023-03-17T13:40:58.717Z,20.67
2023-03-17T13:43:56.111Z,20.34
2023-03-17T13:46:31.921Z,20.47
2023-03-17T13:49:48.233Z,20.56
2023-03-17T13:52:59.491Z,20.92
2023-03-17T13:55:35.240Z,20.37
2023-03-17T13:58:11.987Z,20.10
2023-03-17T14:00:55.889Z,19.93
2023-03-17T14:03:49.222Z,20.10
2023-03-17T14:06:22.726Z,20.35
2023-03-17T14:08:58.268Z,20.46
2023-03-17T14:11:36.469Z,20.85
2023-03-17T14:14:50.063Z,20.88
2023-03-17T14:17:34.442Z,20.65
2023-03-17T14:20:16.295Z,20.88
2023-03-17T14:23:00.328Z,20.55
2023-03-17T14:25:41.065Z,19.97
2023-03-17T14:28:17.329Z,18.73
2023-03-17T14:30:59.548Z,17.56
2023-03-17T14:33:36.719Z,17.06
2023-03-17T14:36:14.600Z,16.60
2023-03-17T14:38:51.734Z,16.07
2023-03-17T14:41:28.968Z,15.61
2023-03-17T14:44:03.289Z,15.22
2023-03-17T14:46:40.614Z,14.81
2023-03-17T14:49:21.420Z,14.46
2023-03-17T14:51:53.843Z,14.16
2023-03-17T14:54:36.000Z,13.75
2023-03-17T14:57:09.241Z,13.52
2023-03-17T15:00:03.567Z,13.24
2023-03-17T15:02:55.504Z,12.96
2023-03-17T15:05:46.994Z,12.82
2023-03-17T15:08:36.068Z,12.66
2023-03-17T15:11:15.094Z,12.48
2023-03-17T15:13:45.173Z,12.29
2023-03-17T15:16:35.157Z,12.15
2023-03-17T15:19:23.351Z,11.98
2023-03-17T15:21:53.041Z,11.84
2023-03-17T15:24:47.570Z,11.74
2023-03-17T15:27:18.934Z,11.56
2023-03-17T15:29:48.481Z,11.49
2023-03-17T15:32:23.643Z,11.39
2023-03-17T15:34:59.619Z,11.31
2023-03-17T15:37:34.052Z,11.21
2023-03-17T15:40:06.230Z,11.07
2023-03-17T15:42:41.327Z,11.00
2023-03-17T15:45:17.201Z,10.95
2023-03-17T15:47:47.895Z,10.89
2023-03-17T15:50:30.441Z,10.80
2023-03-17T15:53:01.431Z,10.74
2023-03-17T15:55:32.545Z,10.63
2023-03-17T15:58:02.080Z,10.56
2023-03-17T16:00:33.621Z,10.49
2023-03-17T16:03:18.733Z,10.40
2023-03-17T16:05:48.315Z,10.29
2023-03-17T16:08:19.197Z,10.21
2023-03-17T16:10:49.502Z,10.12
2023-03-17T16:13:19.832Z,10.02
2023-03-17T16:16:05.683Z,9.93
2023-03-17T16:18:38.388Z,9.79
2023-03-17T16:21:08.008Z,9.68
2023-03-17T16:23:40.808Z,9.58
2023-03-17T16:26:16.069Z,9.50
2023-03-17T16:28:48.003Z,9.39
2023-03-17T16:31:33.338Z,9.27
2023-03-17T16:34:02.836Z,9.15
2023-03-17T16:36:32.638Z,9.03
2023-03-17T16:39:02.577Z,8.94
2023-03-17T16:41:35.459Z,8.86
2023-03-17T16:44:06.649Z,8.79
2023-03-17T16:46:36.162Z,8.69
2023-03-17T16:49:06.493Z,8.61
2023-03-17T16:51:35.964Z,8.52
2023-03-17T16:54:05.570Z,8.40
2023-03-17T16:56:42.472Z,8.30
2023-03-17T16:59:21.399Z,8.20
2023-03-17T17:01:51.076Z,8.10
2023-03-17T17:04:20.634Z,8.02
2023-03-17T17:06:50.796Z,7.95
2023-03-17T17:09:20.490Z,7.87
2023-03-17T17:11:50.126Z,7.81
2023-03-17T17:14:19.902Z,7.75
2023-03-17T17:16:49.383Z,7.68
2023-03-17T17:19:18.961Z,7.60
2023-03-17T17:21:48.452Z,7.53
2023-03-17T17:24:17.796Z,7.46
2023-03-17T17:26:47.312Z,7.39
2023-03-17T17:29:16.708Z,7.32
2023-03-17T17:31:46.238Z,7.24
2023-03-17T17:34:15.612Z,7.17
2023-03-17T17:36:45.115Z,7.10
2023-03-17T17:39:14.896Z,7.04
2023-03-17T17:41:44.327Z,6.99
2023-03-17T17:44:13.749Z,6.93
2023-03-17T17:46:43.313Z,6.89
2023-03-17T17:49:13.115Z,6.84
2023-03-17T17:51:42.504Z,6.80
2023-03-17T17:54:12.480Z,6.77
2023-03-17T17:56:46.961Z,6.75
2023-03-17T17:59:16.793Z,6.72
2023-03-17T18:01:46.265Z,6.69
2023-03-17T18:04:15.927Z,6.65
2023-03-17T18:06:46.524Z,6.62
2023-03-17T18:09:16.728Z,6.58
2023-03-17T18:11:46.220Z,6.55
2023-03-17T18:14:15.578Z,6.51
2023-03-17T18:16:45.336Z,6.49
2023-03-17T18:19:15.993Z,6.46
2023-03-17T18:21:46.729Z,6.43
2023-03-17T18:24:16.502Z,6.41
2023-03-17T18:26:45.912Z,6.38
2023-03-17T18:29:15.444Z,6.37
2023-03-17T18:31:49.758Z,6.35
2023-03-17T18:34:32.812Z,6.33
2023-03-17T18:37:02.736Z,6.31
2023-03-17T18:39:32.691Z,6.30
2023-03-17T18:42:03.245Z,6.30
2023-03-17T18:44:33.259Z,6.28
2023-03-17T18:47:03.491Z,6.26
2023-03-17T18:49:33.863Z,6.25
2023-03-17T18:52:03.261Z,6.21
2023-03-17T18:54:34.370Z,6.18
2023-03-17T18:57:03.994Z,6.16
2023-03-17T18:59:33.323Z,6.13
2023-03-17T19:02:04.801Z,6.09
2023-03-17T19:04:34.237Z,6.05
2023-03-17T19:07:03.683Z,6.01
2023-03-17T19:09:33.558Z,5.97
2023-03-17T19:12:02.987Z,5.91
2023-03-17T19:14:32.483Z,5.82
2023-03-17T19:17:01.832Z,5.75
2023-03-17T19:19:32.285Z,5.70
2023-03-17T19:22:02.153Z,5.65
2023-03-17T19:24:32.395Z,5.58
2023-03-17T19:27:01.989Z,5.50
2023-03-17T19:29:32.640Z,5.46
2023-03-17T19:32:02.570Z,5.41
2023-03-17T19:34:32.317Z,5.38
2023-03-17T19:37:03.671Z,5.36
2023-03-17T19:39:34.146Z,5.33
2023-03-17T19:42:03.779Z,5.31
2023-03-17T19:44:34.333Z,5.29
2023-03-17T19:47:06.784Z,5.26
2023-03-17T19:49:37.842Z,5.23
2023-03-17T19:52:08.315Z,5.21
2023-03-17T19:54:38.361Z,5.17
2023-03-17T19:57:07.757Z,5.12
2023-03-17T19:59:37.179Z,5.08
2023-03-17T20:02:08.042Z,5.02
2023-03-17T20:04:38.040Z,4.98
2023-03-17T20:07:07.691Z,4.93
2023-03-17T20:09:38.193Z,4.88
2023-03-17T20:12:08.130Z,4.83
2023-03-17T20:14:37.577Z,4.78
2023-03-17T20:17:07.085Z,4.71
2023-03-17T20:19:39.484Z,4.58
2023-03-17T20:22:09.133Z,4.51
2023-03-17T20:24:39.238Z,4.43
2023-03-17T20:27:10.728Z,4.34
2023-03-17T20:29:40.168Z,4.23
2023-03-17T20:32:11.614Z,4.17
2023-03-17T20:34:45.085Z,4.10
2023-03-17T20:37:14.847Z,4.02
2023-03-17T20:39:44.441Z,3.95
2023-03-17T20:42:14.895Z,3.91
2023-03-17T20:44:44.447Z,3.88
2023-03-17T20:47:14.340Z,3.85
2023-03-17T20:49:43.962Z,3.81
2023-03-17T20:52:15.112Z,3.76
2023-03-17T20:54:45.851Z,3.70
2023-03-17T20:57:16.165Z,3.64
2023-03-17T20:59:45.693Z,3.58
2023-03-17T21:02:18.450Z,3.51
2023-03-17T21:04:49.253Z,3.45
2023-03-17T21:07:21.687Z,3.41
2023-03-17T21:09:51.832Z,3.36
2023-03-17T21:12:21.456Z,3.31
2023-03-17T21:14:50.818Z,3.28
2023-03-17T21:17:20.256Z,3.23
2023-03-17T21:19:49.689Z,3.19
2023-03-17T21:22:19.146Z,3.13
2023-03-17T21:24:49.186Z,3.08
2023-03-17T21:27:18.971Z,3.05
2023-03-17T21:29:49.070Z,3.04
2023-03-17T21:32:18.740Z,3.04
2023-03-17T21:34:48.265Z,3.03
2023-03-17T21:37:18.484Z,3.03
2023-03-17T21:39:47.854Z,3.02
2023-03-17T21:42:17.202Z,3.01
2023-03-17T21:44:48.410Z,3.00
2023-03-17T21:47:19.094Z,2.98
2023-03-17T21:49:48.555Z,2.94
2023-03-17T21:52:21.985Z,2.89
2023-03-17T21:54:51.695Z,2.84
2023-03-17T21:57:21.163Z,2.78
2023-03-17T21:59:50.593Z,2.71
2023-03-17T22:02:21.097Z,2.65
2023-03-17T22:04:50.539Z,2.61
2023-03-17T22:07:20.031Z,2.60
2023-03-17T22:09:53.486Z,2.59
2023-03-17T22:12:24.489Z,2.58
2023-03-17T22:14:58.400Z,2.58
2023-03-17T22:17:28.225Z,2.57
2023-03-17T22:19:58.055Z,2.56
2023-03-17T22:22:29.036Z,2.54
2023-03-17T22:24:58.564Z,2.52
2023-03-17T22:27:28.044Z,2.50
2023-03-17T22:29:57.871Z,2.49
2023-03-17T22:32:27.347Z,2.49
2023-03-17T22:34:56.881Z,2.51
2023-03-17T22:37:26.830Z,2.52
2023-03-17T22:39:56.982Z,2.54
2023-03-17T22:42:26.721Z,2.56
2023-03-17T22:44:56.382Z,2.59
2023-03-17T22:47:25.842Z,2.60
2023-03-17T22:49:55.241Z,2.61
2023-03-17T22:52:24.755Z,2.62
2023-03-17T22:54:54.144Z,2.63
2023-03-17T22:57:23.650Z,2.64
2023-03-17T22:59:55.386Z,2.64
2023-03-17T23:02:26.391Z,2.62
2023-03-17T23:04:55.809Z,2.62
2023-03-17T23:07:25.174Z,2.62
2023-03-17T23:09:54.603Z,2.62
2023-03-17T23:12:24.813Z,2.63
2023-03-17T23:14:54.539Z,2.63
2023-03-17T23:17:24.006Z,2.64
2023-03-17T23:19:53.492Z,2.64
2023-03-17T23:22:22.895Z,2.65
2023-03-17T23:24:53.406Z,2.66
2023-03-17T23:27:22.732Z,2.68
2023-03-17T23:29:53.338Z,2.69
2023-03-17T23:32:23.220Z,2.71
2023-03-17T23:34:52.944Z,2.71
2023-03-17T23:37:22.481Z,2.74
2023-03-17T23:39:51.967Z,2.75
2023-03-17T23:42:21.464Z,2.76
2023-03-17T23:44:50.742Z,2.76
2023-03-17T23:47:20.747Z,2.78
2023-03-17T23:49:50.125Z,2.78
2023-03-17T23:52:22.021Z,2.78
2023-03-17T23:54:51.459Z,2.76
2023-03-17T23:57:21.050Z,2.76
2023-03-17T23:59:50.860Z,2.75
